Pontardulais, United Kingdom
Current Conditions -  °F | °C
As of 9:50 PM on Wednesday 28 Jan 2015 (Local Time) from EGOP Reporting Station
Scattered Clouds Scattered Clouds  
Wind Chill: -1°   Ceiling: Unl
Heat Index:   Visibility: 6mi
Dew Point:   Wind: 30mph
Humidity: 70%   Direction: 270°W
Pressure: 29.59"   Gusts: NA
Location:  51.71°N, 4.04°W
Report Text: EGOP 282150Z AUTO 27026KT 9999 // FEW050/// SCT100/// 05/00 Q1002
Loading
Personal Weather Stations






























Interactive Weather Map New forecast layout! Learn more

10-Day Weather Forecast

Advertisements
Track Severe Weather on mobile